createdAt,value
2022-09-25T00:01:00.668Z,58.20
2022-09-25T00:03:29.695Z,58.20
2022-09-25T00:06:17.756Z,58.40
2022-09-25T00:08:45.073Z,58.90
2022-09-25T00:11:27.636Z,58.30
2022-09-25T00:13:55.538Z,58.70
2022-09-25T00:16:25.920Z,58.40
2022-09-25T00:19:11.951Z,58.50
2022-09-25T00:21:38.662Z,58.50
2022-09-25T00:24:09.618Z,58.50
2022-09-25T00:26:39.910Z,58.60
2022-09-25T00:29:07.942Z,58.60
2022-09-25T00:31:35.068Z,58.60
2022-09-25T00:34:04.766Z,58.60
2022-09-25T00:36:32.686Z,58.70
2022-09-25T00:39:00.124Z,58.70
2022-09-25T00:41:31.804Z,58.80
2022-09-25T00:43:59.574Z,58.80
2022-09-25T00:46:34.670Z,58.80
2022-09-25T00:49:25.281Z,59.20
2022-09-25T00:51:57.581Z,59.50
2022-09-25T00:54:33.389Z,59.10
2022-09-25T00:57:04.003Z,59.20
2022-09-25T00:59:35.525Z,59.10
2022-09-25T01:02:02.492Z,59.20
2022-09-25T01:04:32.753Z,59.10
2022-09-25T01:07:00.004Z,59.20
2022-09-25T01:09:27.941Z,59.20
2022-09-25T01:11:54.626Z,59.30
2022-09-25T01:14:21.593Z,59.20
2022-09-25T01:17:22.583Z,59.20
2022-09-25T01:19:53.107Z,59.80
2022-09-25T01:22:43.955Z,59.30
2022-09-25T01:26:15.723Z,59.30
2022-09-25T01:28:51.054Z,59.80
2022-09-25T01:31:35.399Z,59.40
2022-09-25T01:34:28.047Z,59.80
2022-09-25T01:37:08.237Z,59.90
2022-09-25T01:39:45.410Z,59.50
2022-09-25T01:42:39.157Z,59.60
2022-09-25T01:45:11.317Z,60.00
2022-09-25T01:47:39.256Z,59.30
2022-09-25T01:50:17.826Z,59.30
2022-09-25T01:52:49.566Z,59.70
2022-09-25T01:55:26.941Z,59.60
2022-09-25T01:57:56.667Z,59.80
2022-09-25T02:00:25.014Z,59.50
2022-09-25T02:03:07.596Z,59.60
2022-09-25T02:05:41.730Z,60.10
2022-09-25T02:08:15.467Z,59.70
2022-09-25T02:10:49.283Z,59.80
2022-09-25T02:13:18.021Z,59.80
2022-09-25T02:15:54.210Z,60.30
2022-09-25T02:18:40.992Z,59.90
2022-09-25T02:21:16.573Z,59.70
2022-09-25T02:24:05.506Z,59.90
2022-09-25T02:26:34.948Z,59.90
2022-09-25T02:29:02.406Z,59.60
2022-09-25T02:31:40.446Z,59.60
2022-09-25T02:34:13.703Z,59.80
2022-09-25T02:36:43.108Z,59.60
2022-09-25T02:39:11.965Z,59.60
2022-09-25T02:42:04.988Z,59.70
2022-09-25T02:44:53.534Z,60.10
2022-09-25T02:47:45.288Z,59.80
2022-09-25T02:50:24.324Z,60.50
2022-09-25T02:53:13.549Z,60.20
2022-09-25T02:56:01.903Z,60.30
2022-09-25T02:58:50.964Z,60.10
2022-09-25T03:01:20.810Z,61.00
2022-09-25T03:03:49.601Z,60.20
2022-09-25T03:06:16.322Z,60.20
2022-09-25T03:08:49.383Z,60.20
2022-09-25T03:11:19.603Z,60.50
2022-09-25T03:13:55.529Z,60.50
2022-09-25T03:16:25.286Z,60.50
2022-09-25T03:18:52.088Z,60.60
2022-09-25T03:21:18.941Z,60.40
2022-09-25T03:23:45.559Z,60.50
2022-09-25T03:26:12.957Z,60.50
2022-09-25T03:28:39.927Z,60.50
2022-09-25T03:31:10.291Z,60.50
2022-09-25T03:33:39.437Z,60.60
2022-09-25T03:36:26.886Z,60.50
2022-09-25T03:38:59.185Z,61.40
2022-09-25T03:41:28.717Z,60.50
2022-09-25T03:43:56.574Z,60.60
2022-09-25T03:46:32.297Z,60.50
2022-09-25T03:48:59.913Z,60.60
2022-09-25T03:51:28.695Z,60.60
2022-09-25T03:53:55.818Z,60.80
2022-09-25T03:56:25.627Z,60.70
2022-09-25T03:58:54.196Z,61.00
2022-09-25T04:01:22.243Z,60.90
2022-09-25T04:03:50.411Z,60.90
2022-09-25T04:06:19.944Z,60.90
2022-09-25T04:08:47.851Z,60.90
2022-09-25T04:11:15.909Z,60.90
2022-09-25T04:13:44.002Z,60.70
2022-09-25T04:16:12.340Z,60.60
2022-09-25T04:18:41.745Z,60.60
2022-09-25T04:21:11.112Z,60.70
2022-09-25T04:23:39.035Z,60.90
2022-09-25T04:26:06.311Z,60.80
2022-09-25T04:28:34.276Z,60.80
2022-09-25T04:31:02.005Z,60.90
2022-09-25T04:33:48.374Z,60.90
2022-09-25T04:36:16.673Z,60.80
2022-09-25T04:38:44.005Z,60.80
2022-09-25T04:41:11.314Z,60.70
2022-09-25T04:43:38.458Z,60.70
2022-09-25T04:46:07.650Z,60.80
2022-09-25T04:48:35.555Z,61.00
2022-09-25T04:51:03.301Z,61.00
2022-09-25T04:53:31.418Z,60.90
2022-09-25T04:56:03.525Z,61.10
2022-09-25T04:58:30.291Z,61.30
2022-09-25T05:01:02.718Z,61.10
2022-09-25T05:03:30.001Z,61.40
2022-09-25T05:05:56.885Z,61.10
2022-09-25T05:08:23.569Z,60.90
2022-09-25T05:10:50.260Z,61.10
2022-09-25T05:13:17.182Z,61.20
2022-09-25T05:15:43.942Z,61.20
2022-09-25T05:18:21.387Z,61.10
2022-09-25T05:20:48.838Z,61.60
2022-09-25T05:23:16.389Z,61.20
2022-09-25T05:25:43.060Z,61.20
2022-09-25T05:28:10.580Z,61.20
2022-09-25T05:30:38.925Z,61.30
2022-09-25T05:33:05.715Z,61.40
2022-09-25T05:35:33.563Z,61.40
2022-09-25T05:38:01.193Z,61.50
2022-09-25T05:40:28.096Z,61.40
2022-09-25T05:42:58.301Z,61.50
2022-09-25T05:45:25.181Z,61.50
2022-09-25T05:48:03.777Z,61.50
2022-09-25T05:50:32.352Z,62.10
2022-09-25T05:53:04.830Z,61.70
2022-09-25T05:55:31.970Z,61.80
2022-09-25T05:58:03.624Z,61.70
2022-09-25T06:00:34.569Z,62.10
2022-09-25T06:03:02.022Z,61.90
2022-09-25T06:05:28.963Z,61.80
2022-09-25T06:07:56.624Z,61.80
2022-09-25T06:10:25.965Z,61.90
2022-09-25T06:12:58.508Z,62.00
2022-09-25T06:15:27.712Z,61.90
2022-09-25T06:17:55.933Z,62.00
2022-09-25T06:20:23.512Z,62.00
2022-09-25T06:22:54.259Z,61.90
2022-09-25T06:25:26.620Z,62.20
2022-09-25T06:27:57.926Z,62.20
2022-09-25T06:30:27.590Z,62.20
2022-09-25T06:32:58.250Z,62.20
2022-09-25T06:35:25.763Z,62.50
2022-09-25T06:37:56.235Z,62.40
2022-09-25T06:40:22.898Z,62.40
2022-09-25T06:42:55.967Z,62.40
2022-09-25T06:45:22.710Z,62.60
2022-09-25T06:47:49.317Z,62.20
2022-09-25T06:50:16.126Z,62.20
2022-09-25T06:52:44.228Z,62.30
2022-09-25T06:55:11.406Z,62.30
2022-09-25T06:57:38.269Z,62.20
2022-09-25T07:00:05.837Z,62.10
2022-09-25T07:02:51.416Z,62.10
2022-09-25T07:05:18.872Z,62.00
2022-09-25T07:07:46.327Z,61.90
2022-09-25T07:10:13.201Z,62.00
2022-09-25T07:12:40.906Z,62.00
2022-09-25T07:15:08.470Z,62.00
2022-09-25T07:17:35.240Z,61.90
2022-09-25T07:20:02.257Z,62.00
2022-09-25T07:22:29.446Z,62.90
2022-09-25T07:24:56.074Z,62.20
2022-09-25T07:27:22.858Z,62.20
2022-09-25T07:29:49.457Z,62.20
2022-09-25T07:32:16.579Z,62.20
2022-09-25T07:34:43.278Z,62.20
2022-09-25T07:37:09.865Z,62.30
2022-09-25T07:39:36.898Z,62.20
2022-09-25T07:42:03.775Z,62.40
2022-09-25T07:44:37.578Z,62.30
2022-09-25T07:47:05.503Z,62.20
2022-09-25T07:49:32.444Z,62.20
2022-09-25T07:51:59.550Z,62.10
2022-09-25T07:54:26.262Z,62.20
2022-09-25T07:56:52.926Z,62.20
2022-09-25T07:59:19.987Z,62.20
2022-09-25T08:01:51.196Z,62.10
2022-09-25T08:04:20.459Z,62.00
2022-09-25T08:06:47.110Z,62.00
2022-09-25T08:09:13.947Z,61.90
2022-09-25T08:11:40.610Z,62.00
2022-09-25T08:14:07.446Z,62.30
2022-09-25T08:16:34.201Z,62.30
2022-09-25T08:19:00.849Z,62.20
2022-09-25T08:21:27.495Z,62.10
2022-09-25T08:23:56.377Z,62.10
2022-09-25T08:26:23.753Z,61.80
2022-09-25T08:28:50.785Z,61.50
2022-09-25T08:31:18.493Z,61.10
2022-09-25T08:33:47.155Z,60.70
2022-09-25T08:36:14.553Z,60.40
2022-09-25T08:38:41.480Z,60.20
2022-09-25T08:41:28.865Z,60.10
2022-09-25T08:44:08.863Z,60.10
2022-09-25T08:47:29.429Z,60.10
2022-09-25T08:50:20.068Z,60.30
2022-09-25T08:52:59.838Z,60.20
2022-09-25T08:55:50.298Z,60.40
2022-09-25T08:58:26.187Z,60.30
2022-09-25T09:00:54.932Z,60.10
2022-09-25T09:03:25.550Z,60.20
2022-09-25T09:05:59.866Z,60.40
2022-09-25T09:08:29.290Z,60.30
2022-09-25T09:11:19.996Z,60.90
2022-09-25T09:13:59.940Z,59.80
2022-09-25T09:16:26.754Z,59.70
2022-09-25T09:18:55.586Z,59.80
2022-09-25T09:21:35.660Z,59.70
2022-09-25T09:24:17.455Z,59.70
2022-09-25T09:27:04.173Z,59.60
2022-09-25T09:30:06.212Z,59.50
2022-09-25T09:32:39.106Z,59.40
2022-09-25T09:35:08.549Z,59.40
2022-09-25T09:37:44.158Z,59.40
2022-09-25T09:40:46.989Z,59.50
2022-09-25T09:43:19.705Z,59.30
2022-09-25T09:46:25.513Z,59.30
2022-09-25T09:49:08.818Z,59.00
2022-09-25T09:51:39.753Z,58.80
2022-09-25T09:54:11.710Z,58.90
2022-09-25T09:56:43.557Z,58.90
2022-09-25T09:59:19.570Z,58.60
2022-09-25T10:01:58.067Z,58.30
2022-09-25T10:04:30.146Z,58.50
2022-09-25T10:07:07.038Z,58.50
2022-09-25T10:09:34.557Z,58.30
2022-09-25T10:12:32.785Z,58.40
2022-09-25T10:15:04.504Z,58.00
2022-09-25T10:17:32.237Z,58.10
2022-09-25T10:20:03.462Z,58.00
2022-09-25T10:22:38.640Z,57.90
2022-09-25T10:25:06.454Z,57.60
2022-09-25T10:27:36.401Z,57.80
2022-09-25T10:30:16.314Z,58.00
2022-09-25T10:32:57.107Z,58.20
2022-09-25T10:35:39.856Z,58.40
2022-09-25T10:38:32.218Z,58.30
2022-09-25T10:41:12.365Z,57.90
2022-09-25T10:44:00.014Z,58.80
2022-09-25T10:46:51.382Z,58.50
2022-09-25T10:49:44.469Z,58.90
2022-09-25T10:52:14.510Z,58.00
2022-09-25T10:54:45.197Z,57.70
2022-09-25T10:57:38.367Z,56.80
2022-09-25T11:00:19.995Z,54.50
2022-09-25T11:02:48.433Z,54.70
2022-09-25T11:05:18.882Z,54.40
2022-09-25T11:07:59.516Z,54.00
2022-09-25T11:10:30.130Z,53.40
2022-09-25T11:12:58.203Z,53.80
2022-09-25T11:15:27.381Z,53.70
2022-09-25T11:17:56.204Z,53.60
2022-09-25T11:20:33.258Z,53.40
2022-09-25T11:23:25.988Z,52.60
2022-09-25T11:26:05.951Z,53.10
2022-09-25T11:28:52.116Z,52.70
2022-09-25T11:31:49.788Z,52.50
2022-09-25T11:34:19.456Z,52.00
2022-09-25T11:36:50.943Z,52.80
2022-09-25T11:39:44.526Z,53.00
2022-09-25T11:42:24.825Z,52.20
2022-09-25T11:45:09.016Z,51.70
2022-09-25T11:48:06.846Z,51.20
2022-09-25T11:50:46.528Z,51.30
2022-09-25T11:53:25.569Z,51.10
2022-09-25T11:56:17.389Z,51.30
2022-09-25T11:59:08.015Z,50.20
2022-09-25T12:01:41.684Z,50.60
2022-09-25T12:04:30.666Z,51.00
2022-09-25T12:07:30.420Z,50.70
2022-09-25T12:10:17.630Z,50.00
2022-09-25T12:13:07.070Z,50.80
2022-09-25T12:16:09.213Z,50.30
2022-09-25T12:18:41.797Z,49.80
2022-09-25T12:21:32.190Z,50.60
2022-09-25T12:24:23.640Z,50.70
2022-09-25T12:27:07.184Z,50.20
2022-09-25T12:29:52.542Z,50.70
2022-09-25T12:32:30.029Z,51.00
2022-09-25T12:35:22.046Z,50.10
2022-09-25T12:38:23.937Z,50.00
2022-09-25T12:41:24.511Z,50.10
2022-09-25T12:44:11.562Z,49.40
2022-09-25T12:46:57.528Z,49.70
2022-09-25T12:49:32.478Z,50.50
2022-09-25T12:52:10.900Z,50.10
2022-09-25T12:54:47.749Z,49.70
2022-09-25T12:57:27.522Z,49.70
2022-09-25T13:00:23.169Z,49.70
2022-09-25T13:03:01.701Z,49.30
2022-09-25T13:05:42.437Z,49.60
2022-09-25T13:08:24.239Z,49.20
2022-09-25T13:11:02.615Z,49.10
2022-09-25T13:13:36.629Z,49.20
2022-09-25T13:16:03.805Z,49.50
2022-09-25T13:18:33.861Z,49.50
2022-09-25T13:21:22.646Z,49.30
2022-09-25T13:23:51.802Z,48.50
2022-09-25T13:26:24.670Z,49.10
2022-09-25T13:28:57.343Z,48.90
2022-09-25T13:31:30.032Z,48.60
2022-09-25T13:34:04.719Z,48.60
2022-09-25T13:36:53.905Z,48.70
2022-09-25T13:39:55.871Z,48.20
2022-09-25T13:42:29.835Z,48.70
2022-09-25T13:44:58.866Z,49.30
2022-09-25T13:47:25.680Z,49.80
2022-09-25T13:49:55.355Z,50.10
2022-09-25T13:52:30.705Z,49.60
2022-09-25T13:55:23.942Z,48.60
2022-09-25T13:57:57.438Z,47.60
2022-09-25T14:00:50.830Z,47.20
2022-09-25T14:03:41.765Z,47.90
2022-09-25T14:06:22.512Z,46.60
2022-09-25T14:08:50.306Z,47.40
2022-09-25T14:11:23.008Z,47.60
2022-09-25T14:13:52.350Z,47.40
2022-09-25T14:16:27.976Z,46.90
2022-09-25T14:19:00.938Z,46.60
2022-09-25T14:21:29.902Z,46.40
2022-09-25T14:24:11.648Z,46.20
2022-09-25T14:26:44.818Z,46.10
2022-09-25T14:29:17.845Z,45.80
2022-09-25T14:31:56.980Z,45.40
2022-09-25T14:34:41.527Z,45.70
2022-09-25T14:37:54.145Z,45.50
2022-09-25T14:40:33.877Z,45.40
2022-09-25T14:43:40.352Z,46.10
2022-09-25T14:46:20.258Z,45.50
2022-09-25T14:48:50.996Z,45.20
2022-09-25T14:51:25.844Z,45.10
2022-09-25T14:53:57.347Z,45.10
2022-09-25T14:56:25.757Z,45.40
2022-09-25T14:58:57.775Z,45.00
2022-09-25T15:01:29.541Z,45.10
2022-09-25T15:04:01.366Z,45.20
2022-09-25T15:06:31.840Z,45.10
2022-09-25T15:09:02.557Z,45.50
2022-09-25T15:11:40.992Z,45.70
2022-09-25T15:14:25.584Z,45.10
2022-09-25T15:17:11.476Z,45.60
2022-09-25T15:19:43.466Z,46.00
2022-09-25T15:22:39.302Z,46.50
2022-09-25T15:25:21.611Z,45.60
2022-09-25T15:27:49.652Z,45.90
2022-09-25T15:30:17.446Z,46.40
2022-09-25T15:32:46.977Z,46.50
2022-09-25T15:35:19.537Z,46.50
2022-09-25T15:37:47.291Z,46.40
2022-09-25T15:40:16.873Z,46.20
2022-09-25T15:42:49.013Z,45.60
2022-09-25T15:45:37.271Z,45.30
2022-09-25T15:48:32.383Z,43.90
2022-09-25T15:51:03.398Z,44.00
2022-09-25T15:53:43.728Z,44.50
2022-09-25T15:56:27.942Z,43.60
2022-09-25T15:59:04.367Z,43.70
2022-09-25T16:01:53.067Z,44.30
2022-09-25T16:04:46.018Z,43.70
2022-09-25T16:07:37.428Z,43.50
2022-09-25T16:10:10.985Z,42.50
2022-09-25T16:12:42.004Z,42.70
2022-09-25T16:15:26.922Z,42.80
2022-09-25T16:17:54.992Z,42.80
2022-09-25T16:20:24.424Z,43.20
2022-09-25T16:22:59.627Z,42.60
2022-09-25T16:25:37.261Z,42.20
2022-09-25T16:28:14.776Z,42.00
2022-09-25T16:30:48.721Z,42.10
2022-09-25T16:33:25.456Z,41.90
2022-09-25T16:36:11.583Z,41.90
2022-09-25T16:38:40.165Z,42.20
2022-09-25T16:41:18.969Z,41.80
2022-09-25T16:43:46.543Z,41.60
2022-09-25T16:46:17.303Z,41.40
2022-09-25T16:48:56.998Z,41.10
2022-09-25T16:51:26.801Z,40.90
2022-09-25T16:53:56.624Z,40.80
2022-09-25T16:56:25.772Z,40.70
2022-09-25T16:58:54.021Z,40.60
2022-09-25T17:01:22.604Z,40.50
2022-09-25T17:03:49.828Z,40.20
2022-09-25T17:06:21.619Z,40.60
2022-09-25T17:08:49.142Z,40.80
2022-09-25T17:11:18.190Z,41.30
2022-09-25T17:13:45.640Z,41.70
2022-09-25T17:16:13.557Z,41.90
2022-09-25T17:18:41.178Z,42.00
2022-09-25T17:21:13.883Z,42.10
2022-09-25T17:23:40.955Z,42.40
2022-09-25T17:26:22.559Z,42.50
2022-09-25T17:28:52.079Z,42.80
2022-09-25T17:31:21.260Z,42.90
2022-09-25T17:33:51.841Z,43.10
2022-09-25T17:36:18.803Z,43.20
2022-09-25T17:38:45.609Z,43.30
2022-09-25T17:41:20.749Z,43.50
2022-09-25T17:43:47.831Z,43.70
2022-09-25T17:46:16.493Z,43.70
2022-09-25T17:48:43.346Z,44.00
2022-09-25T17:51:20.326Z,44.10
2022-09-25T17:53:49.018Z,44.30
2022-09-25T17:56:16.294Z,44.40
2022-09-25T17:58:45.643Z,44.50
2022-09-25T18:01:22.108Z,45.10
2022-09-25T18:03:54.301Z,44.80
2022-09-25T18:06:21.426Z,45.40
2022-09-25T18:08:49.021Z,44.90
2022-09-25T18:11:16.537Z,45.10
2022-09-25T18:13:43.346Z,45.10
2022-09-25T18:16:19.793Z,45.30
2022-09-25T18:19:06.195Z,45.50
2022-09-25T18:21:51.364Z,45.40
2022-09-25T18:24:18.407Z,45.50
2022-09-25T18:26:45.605Z,45.70
2022-09-25T18:29:17.062Z,45.90
2022-09-25T18:31:45.490Z,46.00
2022-09-25T18:34:12.580Z,46.10
2022-09-25T18:36:39.440Z,46.20
2022-09-25T18:39:06.545Z,46.30
2022-09-25T18:41:37.712Z,46.40
2022-09-25T18:44:07.426Z,46.50
2022-09-25T18:46:35.714Z,46.50
2022-09-25T18:49:02.846Z,47.00
2022-09-25T18:51:29.752Z,46.60
2022-09-25T18:53:56.436Z,46.70
2022-09-25T18:56:23.163Z,46.80
2022-09-25T18:58:51.840Z,46.80
2022-09-25T19:01:18.731Z,46.90
2022-09-25T19:03:53.055Z,47.00
2022-09-25T19:06:20.835Z,47.20
2022-09-25T19:08:55.936Z,47.10
2022-09-25T19:11:27.208Z,47.40
2022-09-25T19:13:54.629Z,47.40
2022-09-25T19:16:22.076Z,47.30
2022-09-25T19:18:50.191Z,47.50
2022-09-25T19:21:21.080Z,47.50
2022-09-25T19:23:49.245Z,47.70
2022-09-25T19:26:19.618Z,47.60
2022-09-25T19:28:46.520Z,47.70
2022-09-25T19:31:18.864Z,47.70
2022-09-25T19:33:46.358Z,47.90
2022-09-25T19:36:24.985Z,48.30
2022-09-25T19:38:53.235Z,48.20
2022-09-25T19:41:27.273Z,47.90
2022-09-25T19:43:57.069Z,48.10
2022-09-25T19:46:24.246Z,48.10
2022-09-25T19:48:51.799Z,48.10
2022-09-25T19:51:21.104Z,48.20
2022-09-25T19:53:48.677Z,48.30
2022-09-25T19:56:16.665Z,48.30
2022-09-25T19:58:43.613Z,48.40
2022-09-25T20:01:13.045Z,48.50
2022-09-25T20:03:40.847Z,48.60
2022-09-25T20:06:08.911Z,48.70
2022-09-25T20:08:36.026Z,48.70
2022-09-25T20:11:18.754Z,48.80
2022-09-25T20:13:48.371Z,49.50
2022-09-25T20:16:17.771Z,48.80
2022-09-25T20:18:52.943Z,48.90
2022-09-25T20:21:21.768Z,49.50
2022-09-25T20:23:53.093Z,49.00
2022-09-25T20:26:20.380Z,49.10
2022-09-25T20:29:01.263Z,49.10
2022-09-25T20:31:30.749Z,49.20
2022-09-25T20:33:57.619Z,49.10
2022-09-25T20:36:24.873Z,49.10
2022-09-25T20:38:53.557Z,49.20
2022-09-25T20:41:21.181Z,49.20
2022-09-25T20:43:53.834Z,49.30
2022-09-25T20:46:20.582Z,49.40
2022-09-25T20:48:50.260Z,49.30
2022-09-25T20:51:26.892Z,49.50
2022-09-25T20:53:59.411Z,49.50
2022-09-25T20:56:28.528Z,49.50
2022-09-25T20:58:56.570Z,49.60
2022-09-25T21:01:27.096Z,49.60
2022-09-25T21:03:54.490Z,49.70
2022-09-25T21:06:24.505Z,49.70
2022-09-25T21:08:53.445Z,49.70
2022-09-25T21:11:20.635Z,49.70
2022-09-25T21:13:52.769Z,49.70
2022-09-25T21:16:21.318Z,49.80
2022-09-25T21:18:57.383Z,49.80
2022-09-25T21:21:25.656Z,50.00
2022-09-25T21:23:54.106Z,49.90
2022-09-25T21:26:22.378Z,50.00
2022-09-25T21:28:54.013Z,50.00
2022-09-25T21:31:22.132Z,50.10
2022-09-25T21:33:51.624Z,50.10
2022-09-25T21:36:19.013Z,50.20
2022-09-25T21:38:45.673Z,50.10
2022-09-25T21:41:15.134Z,50.10
2022-09-25T21:43:43.844Z,50.20
2022-09-25T21:46:15.554Z,50.20
2022-09-25T21:48:48.449Z,50.30
2022-09-25T21:51:15.653Z,50.30
2022-09-25T21:53:42.286Z,50.30
2022-09-25T21:56:11.509Z,50.40
2022-09-25T21:58:39.017Z,50.40
2022-09-25T22:01:11.368Z,50.40
2022-09-25T22:03:40.324Z,50.50
2022-09-25T22:06:10.772Z,50.50
2022-09-25T22:08:39.455Z,50.50
2022-09-25T22:11:08.539Z,50.50
2022-09-25T22:13:37.622Z,50.50
2022-09-25T22:16:10.548Z,50.60
2022-09-25T22:18:46.096Z,50.60
2022-09-25T22:21:15.370Z,50.80
2022-09-25T22:23:42.035Z,50.70
2022-09-25T22:26:09.126Z,50.70
2022-09-25T22:28:37.215Z,50.70
2022-09-25T22:31:11.300Z,50.70
2022-09-25T22:33:39.399Z,50.80
2022-09-25T22:36:07.998Z,50.80
2022-09-25T22:38:35.296Z,50.80
2022-09-25T22:41:07.268Z,50.90
2022-09-25T22:43:34.033Z,50.90
2022-09-25T22:46:01.229Z,50.90
2022-09-25T22:48:28.697Z,50.90
2022-09-25T22:51:06.552Z,51.00
2022-09-25T22:53:35.463Z,51.00
2022-09-25T22:56:11.201Z,51.00
2022-09-25T22:58:38.667Z,51.20
2022-09-25T23:01:11.225Z,51.10
2022-09-25T23:03:38.984Z,51.10
2022-09-25T23:06:05.996Z,51.10
2022-09-25T23:08:32.776Z,51.20
2022-09-25T23:11:08.338Z,51.20
2022-09-25T23:13:36.709Z,51.30
2022-09-25T23:16:06.118Z,51.20
2022-09-25T23:18:36.778Z,51.30
2022-09-25T23:21:04.565Z,51.30
2022-09-25T23:23:32.368Z,51.40
2022-09-25T23:26:05.934Z,51.40
2022-09-25T23:28:35.057Z,51.50
2022-09-25T23:31:10.173Z,51.50
2022-09-25T23:33:38.700Z,51.60
2022-09-25T23:36:08.254Z,51.60
2022-09-25T23:38:35.884Z,51.60
2022-09-25T23:41:12.370Z,51.60
2022-09-25T23:43:38.989Z,51.70
2022-09-25T23:46:06.283Z,51.70
2022-09-25T23:48:33.048Z,51.70
2022-09-25T23:50:59.793Z,51.80
2022-09-25T23:53:26.712Z,51.70
2022-09-25T23:55:53.914Z,51.80
2022-09-25T23:58:20.614Z,51.80
